Terminal Aerodrome Forecast
Issued by NWS Twin Cities, MN

Home | Current Version | Previous Version | Graphics & Text | Print | Product List | Glossary On
Versions: 1 2 3 4 5 6 7 8 9 10 11 12 13 14 15 16 17 18 19 20 21 22 23 24 25 26
000
FTUS43 KMPX 111100
TAFMSP
TAF
KMSP 111131Z 1112/1218 18011G20KT P6SM -SHRA SCT050 BKN090 OVC250
      TEMPO 1112/1114 5SM TSRA OVC035CB
     FM111500 19011KT P6SM BKN035 OVC070
     FM111800 21010KT P6SM BKN040 OVC070
      TEMPO 1122/1202 -SHRA BKN035
     FM120200 26005KT P6SM SCT250=

USA.gov is the U.S. government's official web portal to all federal, state and local government web resources and services.